createdAt,value
2022-12-03T00:00:53.310Z,26.02
2022-12-03T00:01:56.169Z,26.58
2022-12-03T00:02:58.905Z,23.58
2022-12-03T00:04:01.621Z,24.85
2022-12-03T00:05:04.594Z,24.55
2022-12-03T00:06:07.398Z,24.00
2022-12-03T00:07:10.358Z,24.50
2022-12-03T00:08:13.150Z,23.53
2022-12-03T00:09:17.038Z,24.12
2022-12-03T00:10:20.241Z,25.02
2022-12-03T00:11:22.722Z,25.10
2022-12-03T00:12:25.595Z,25.17
2022-12-03T00:13:28.733Z,23.85
2022-12-03T00:14:31.370Z,25.17
2022-12-03T00:15:33.942Z,26.60
2022-12-03T00:16:36.965Z,25.95
2022-12-03T00:17:40.465Z,25.67
2022-12-03T00:18:43.220Z,24.95
2022-12-03T00:19:45.821Z,25.55
2022-12-03T00:20:48.946Z,24.33
2022-12-03T00:21:51.476Z,24.55
2022-12-03T00:22:54.397Z,25.02
2022-12-03T00:23:57.242Z,25.20
2022-12-03T00:24:59.815Z,23.92
2022-12-03T00:26:02.473Z,24.87
2022-12-03T00:27:05.549Z,24.90
2022-12-03T00:28:08.416Z,25.13
2022-12-03T00:29:11.376Z,23.85
2022-12-03T00:30:14.516Z,25.02
2022-12-03T00:31:18.738Z,25.90
2022-12-03T00:32:21.475Z,23.35
2022-12-03T00:33:24.602Z,24.20
2022-12-03T00:34:27.198Z,24.50
2022-12-03T00:35:29.858Z,24.90
2022-12-03T00:36:32.973Z,23.73
2022-12-03T00:37:35.553Z,24.42
2022-12-03T00:38:38.428Z,24.27
2022-12-03T00:39:40.965Z,23.40
2022-12-03T00:40:44.023Z,24.73
2022-12-03T00:41:47.423Z,23.65
2022-12-03T00:42:49.961Z,23.40
2022-12-03T00:43:57.422Z,23.90
2022-12-03T00:45:00.222Z,22.13
2022-12-03T00:46:02.822Z,22.95
2022-12-03T00:47:06.091Z,23.67
2022-12-03T00:48:08.702Z,23.17
2022-12-03T00:49:11.503Z,24.67
2022-12-03T00:50:14.374Z,23.27
2022-12-03T00:51:17.042Z,23.60
2022-12-03T00:52:19.637Z,24.25
2022-12-03T00:53:22.687Z,24.90
2022-12-03T00:54:31.402Z,23.65
2022-12-03T00:55:34.585Z,23.42
2022-12-03T00:56:37.486Z,23.50
2022-12-03T00:57:40.145Z,23.42
2022-12-03T00:58:43.098Z,22.13
2022-12-03T00:59:45.986Z,23.77
2022-12-03T01:00:49.079Z,24.00
2022-12-03T01:01:51.815Z,22.90
2022-12-03T01:02:54.519Z,22.23
2022-12-03T01:03:57.507Z,23.02
2022-12-03T01:05:00.885Z,23.17
2022-12-03T01:06:03.953Z,23.35
2022-12-03T01:07:07.011Z,21.90
2022-12-03T01:08:09.670Z,21.98
2022-12-03T01:09:12.303Z,23.55
2022-12-03T01:10:15.561Z,21.87
2022-12-03T01:11:37.238Z,22.05
2022-12-03T01:12:40.051Z,22.05
2022-12-03T01:13:42.598Z,22.65
2022-12-03T01:14:46.499Z,22.40
2022-12-03T01:15:49.405Z,23.15
2022-12-03T01:16:52.094Z,21.90
2022-12-03T01:17:55.220Z,22.73
2022-12-03T01:18:57.848Z,21.30
2022-12-03T01:20:01.670Z,22.77
2022-12-03T01:21:05.083Z,22.47
2022-12-03T01:22:08.493Z,22.07
2022-12-03T01:23:11.040Z,22.35
2022-12-03T01:24:14.421Z,21.62
2022-12-03T01:25:17.979Z,22.17
2022-12-03T01:26:20.829Z,21.92
2022-12-03T01:27:23.443Z,22.25
2022-12-03T01:28:27.039Z,20.92
2022-12-03T01:29:29.647Z,21.58
2022-12-03T01:30:52.717Z,21.95
2022-12-03T01:32:14.356Z,21.23
2022-12-03T01:33:16.909Z,21.83
2022-12-03T01:34:20.063Z,21.48
2022-12-03T01:35:22.645Z,21.55
2022-12-03T01:36:26.016Z,21.45
2022-12-03T01:37:28.988Z,21.75
2022-12-03T01:38:31.937Z,21.87
2022-12-03T01:39:34.517Z,21.67
2022-12-03T01:40:37.580Z,21.62
2022-12-03T01:41:40.908Z,20.83
2022-12-03T01:42:44.107Z,20.60
2022-12-03T01:43:48.102Z,20.60
2022-12-03T01:44:56.023Z,20.62
2022-12-03T01:45:58.783Z,20.80
2022-12-03T01:47:06.366Z,20.65
2022-12-03T01:48:13.013Z,20.30
2022-12-03T01:49:20.389Z,19.62
2022-12-03T01:50:32.115Z,19.10
2022-12-03T01:51:34.667Z,20.17
2022-12-03T01:52:39.076Z,20.15
2022-12-03T01:53:43.820Z,20.10
2022-12-03T01:54:51.125Z,19.47
2022-12-03T01:55:54.091Z,18.75
2022-12-03T01:56:57.927Z,18.65
2022-12-03T01:58:02.277Z,19.75
2022-12-03T01:59:05.738Z,20.62
2022-12-03T02:00:17.062Z,18.60
2022-12-03T02:01:19.945Z,19.73
2022-12-03T02:02:31.523Z,18.80
2022-12-03T02:03:34.510Z,19.92
2022-12-03T02:04:37.387Z,18.27
2022-12-03T02:05:39.976Z,18.90
2022-12-03T02:06:45.664Z,18.60
2022-12-03T02:07:48.627Z,19.15
2022-12-03T02:08:51.483Z,18.50
2022-12-03T02:09:56.827Z,18.80
2022-12-03T02:11:04.463Z,18.37
2022-12-03T02:12:07.090Z,19.02
2022-12-03T02:13:10.784Z,18.60
2022-12-03T02:14:19.115Z,18.30
2022-12-03T02:15:22.085Z,18.63
2022-12-03T02:16:25.356Z,18.07
2022-12-03T02:17:28.637Z,18.20
2022-12-03T02:18:31.395Z,18.55
2022-12-03T02:19:34.565Z,19.12
2022-12-03T02:20:56.175Z,19.85
2022-12-03T02:22:18.031Z,19.27
2022-12-03T02:23:36.318Z,18.70
2022-12-03T02:24:56.507Z,18.35
2022-12-03T02:25:59.726Z,18.75
2022-12-03T02:27:03.649Z,17.73
2022-12-03T02:28:08.961Z,19.03
2022-12-03T02:29:11.938Z,18.27
2022-12-03T02:30:19.132Z,18.37
2022-12-03T02:31:23.414Z,17.83
2022-12-03T02:32:26.174Z,17.67
2022-12-03T02:33:28.739Z,18.83
2022-12-03T02:34:34.655Z,18.55
2022-12-03T02:35:38.375Z,19.37
2022-12-03T02:36:41.215Z,19.00
2022-12-03T02:37:46.624Z,17.70
2022-12-03T02:38:50.520Z,17.65
2022-12-03T02:39:58.882Z,18.08
2022-12-03T02:41:06.777Z,17.83
2022-12-03T02:42:29.906Z,18.52
2022-12-03T02:43:32.761Z,17.23
2022-12-03T02:44:35.939Z,18.40
2022-12-03T02:45:41.382Z,19.70
2022-12-03T02:46:44.641Z,18.33
2022-12-03T02:47:54.715Z,19.35
2022-12-03T02:48:58.117Z,18.33
2022-12-03T02:50:01.379Z,18.70
2022-12-03T02:51:07.996Z,18.08
2022-12-03T02:52:11.021Z,17.10
2022-12-03T02:53:24.911Z,19.23
2022-12-03T02:54:27.444Z,18.20
2022-12-03T02:55:36.770Z,17.75
2022-12-03T02:56:40.501Z,18.58
2022-12-03T02:57:46.635Z,18.90
2022-12-03T02:58:53.339Z,19.25
2022-12-03T02:59:56.389Z,18.30
2022-12-03T03:01:00.840Z,17.33
2022-12-03T03:02:04.231Z,18.98
2022-12-03T03:03:08.315Z,20.77
2022-12-03T03:04:11.351Z,22.50
2022-12-03T03:05:16.141Z,21.83
2022-12-03T03:06:19.719Z,30.58
2022-12-03T03:07:23.075Z,31.98
2022-12-03T03:08:27.356Z,31.80
2022-12-03T03:09:30.516Z,33.50
2022-12-03T03:10:35.362Z,30.07
2022-12-03T03:11:38.429Z,26.60
2022-12-03T03:12:41.212Z,23.17
2022-12-03T03:13:44.093Z,23.35
2022-12-03T03:14:47.203Z,24.63
2022-12-03T03:15:50.429Z,24.08
2022-12-03T03:16:56.282Z,23.83
2022-12-03T03:17:59.035Z,24.37
2022-12-03T03:19:02.655Z,24.98
2022-12-03T03:20:07.012Z,24.25
2022-12-03T03:21:09.723Z,20.87
2022-12-03T03:22:12.653Z,20.30
2022-12-03T03:23:18.997Z,19.40
2022-12-03T03:24:22.490Z,19.70
2022-12-03T03:25:25.410Z,20.23
2022-12-03T03:26:28.816Z,20.20
2022-12-03T03:27:31.525Z,19.73
2022-12-03T03:28:40.438Z,19.27
2022-12-03T03:29:43.433Z,20.55
2022-12-03T03:30:47.261Z,19.92
2022-12-03T03:31:50.093Z,19.77
2022-12-03T03:32:53.180Z,18.97
2022-12-03T03:33:56.192Z,20.23
2022-12-03T03:34:59.040Z,19.08
2022-12-03T03:36:02.564Z,19.60
2022-12-03T03:37:05.308Z,19.08
2022-12-03T03:38:09.464Z,19.85
2022-12-03T03:39:13.059Z,18.90
2022-12-03T03:40:15.756Z,19.42
2022-12-03T03:41:21.021Z,21.42
2022-12-03T03:42:24.235Z,20.60
2022-12-03T03:43:28.114Z,20.83
2022-12-03T03:44:30.822Z,19.87
2022-12-03T03:45:33.718Z,21.05
2022-12-03T03:46:38.420Z,21.05
2022-12-03T03:47:41.719Z,22.83
2022-12-03T03:48:44.456Z,23.75
2022-12-03T03:49:49.598Z,22.83
2022-12-03T03:50:52.855Z,21.65
2022-12-03T03:51:55.778Z,21.37
2022-12-03T03:53:02.668Z,20.07
2022-12-03T03:54:06.102Z,17.87
2022-12-03T03:55:11.793Z,20.05
2022-12-03T03:56:16.235Z,19.52
2022-12-03T03:57:20.634Z,19.98
2022-12-03T03:58:23.380Z,18.48
2022-12-03T03:59:26.014Z,19.37
2022-12-03T04:00:30.430Z,19.23
2022-12-03T04:01:33.902Z,18.25
2022-12-03T04:02:36.660Z,18.05
2022-12-03T04:03:40.199Z,19.60
2022-12-03T04:04:42.774Z,19.07
2022-12-03T04:05:45.358Z,18.35
2022-12-03T04:06:49.476Z,18.85
2022-12-03T04:07:52.394Z,18.87
2022-12-03T04:08:55.492Z,17.75
2022-12-03T04:09:58.031Z,19.42
2022-12-03T04:11:20.299Z,19.92
2022-12-03T04:12:41.741Z,19.77
2022-12-03T04:13:44.320Z,20.00
2022-12-03T04:14:46.832Z,19.47
2022-12-03T04:15:50.757Z,20.07
2022-12-03T04:16:53.387Z,20.73
2022-12-03T04:18:15.425Z,19.27
2022-12-03T04:19:18.128Z,19.02
2022-12-03T04:20:21.071Z,18.52
2022-12-03T04:21:42.792Z,18.65
2022-12-03T04:22:45.327Z,19.25
2022-12-03T04:23:48.111Z,19.62
2022-12-03T04:24:51.459Z,19.52
2022-12-03T04:26:12.895Z,17.50
2022-12-03T04:27:34.829Z,19.13
2022-12-03T04:28:49.602Z,19.62
2022-12-03T04:29:52.442Z,19.73
2022-12-03T04:30:55.481Z,20.35
2022-12-03T04:32:16.735Z,19.12
2022-12-03T04:33:38.261Z,18.48
2022-12-03T04:34:59.967Z,17.62
2022-12-03T04:36:03.019Z,18.35
2022-12-03T04:37:06.477Z,20.00
2022-12-03T04:38:13.170Z,19.80
2022-12-03T04:39:15.697Z,21.03
2022-12-03T04:40:36.868Z,23.33
2022-12-03T04:41:39.786Z,19.98
2022-12-03T04:42:42.632Z,21.62
2022-12-03T04:44:04.347Z,20.62
2022-12-03T04:45:07.872Z,22.08
2022-12-03T04:46:11.069Z,21.58
2022-12-03T04:47:19.410Z,20.58
2022-12-03T04:48:22.807Z,20.23
2022-12-03T04:49:25.798Z,20.20
2022-12-03T04:50:28.659Z,19.23
2022-12-03T04:51:31.258Z,18.85
2022-12-03T04:52:34.884Z,20.45
2022-12-03T04:53:40.754Z,19.83
2022-12-03T04:54:48.498Z,20.60
2022-12-03T04:55:51.016Z,19.50
2022-12-03T04:56:53.739Z,19.33
2022-12-03T04:57:56.860Z,19.27
2022-12-03T04:58:59.934Z,19.20
2022-12-03T05:00:03.052Z,18.47
2022-12-03T05:01:06.632Z,19.23
2022-12-03T05:02:09.979Z,17.60
2022-12-03T05:03:13.299Z,18.45
2022-12-03T05:04:16.400Z,18.02
2022-12-03T05:05:19.124Z,18.40
2022-12-03T05:06:22.331Z,17.65
2022-12-03T05:07:24.922Z,19.05
2022-12-03T05:08:27.934Z,17.50
2022-12-03T05:09:31.638Z,18.50
2022-12-03T05:10:34.289Z,18.07
2022-12-03T05:11:36.995Z,18.60
2022-12-03T05:12:39.851Z,16.77
2022-12-03T05:13:43.292Z,18.80
2022-12-03T05:14:46.000Z,17.90
2022-12-03T05:15:49.015Z,18.48
2022-12-03T05:16:51.676Z,18.12
2022-12-03T05:17:54.974Z,18.23
2022-12-03T05:18:58.343Z,18.05
2022-12-03T05:20:19.639Z,16.87
2022-12-03T05:21:22.369Z,16.83
2022-12-03T05:22:24.963Z,20.12
2022-12-03T05:23:28.222Z,19.67
2022-12-03T05:24:31.040Z,19.20
2022-12-03T05:25:33.660Z,21.50
2022-12-03T05:26:36.614Z,23.33
2022-12-03T05:27:39.238Z,19.60
2022-12-03T05:28:41.922Z,19.37
2022-12-03T05:29:44.847Z,19.98
2022-12-03T05:30:47.569Z,20.42
2022-12-03T05:31:50.167Z,19.20
2022-12-03T05:32:52.928Z,18.80
2022-12-03T05:33:55.547Z,17.60
2022-12-03T05:34:58.452Z,16.80
2022-12-03T05:36:01.706Z,39.42
2022-12-03T05:37:04.982Z,45.90
2022-12-03T05:38:08.140Z,40.88
2022-12-03T05:39:10.654Z,28.12
2022-12-03T05:40:15.075Z,26.62
2022-12-03T05:41:36.174Z,21.55
2022-12-03T05:42:54.337Z,19.13
2022-12-03T05:43:56.996Z,20.75
2022-12-03T05:44:59.541Z,24.90
2022-12-03T05:46:02.408Z,23.20
2022-12-03T05:47:05.662Z,24.42
2022-12-03T05:48:10.711Z,20.67
2022-12-03T05:49:13.835Z,18.67
2022-12-03T05:50:16.787Z,19.77
2022-12-03T05:51:19.683Z,18.15
2022-12-03T05:52:22.190Z,17.12
2022-12-03T05:53:29.475Z,18.47
2022-12-03T05:54:32.519Z,16.52
2022-12-03T05:55:35.092Z,18.35
2022-12-03T05:56:39.272Z,17.23
2022-12-03T05:57:42.106Z,20.42
2022-12-03T05:58:45.266Z,23.33
2022-12-03T05:59:47.926Z,19.80
2022-12-03T06:00:50.504Z,18.90
2022-12-03T06:01:53.418Z,17.55
2022-12-03T06:02:57.340Z,17.85
2022-12-03T06:04:00.123Z,18.63
2022-12-03T06:05:03.088Z,19.10
2022-12-03T06:06:05.984Z,18.20
2022-12-03T06:07:13.783Z,20.58
2022-12-03T06:08:17.023Z,29.48
2022-12-03T06:09:25.157Z,22.60
2022-12-03T06:10:27.813Z,20.05
2022-12-03T06:11:30.480Z,19.60
2022-12-03T06:12:33.330Z,18.48
2022-12-03T06:13:35.934Z,16.70
2022-12-03T06:14:38.457Z,17.00
2022-12-03T06:15:43.888Z,17.52
2022-12-03T06:16:46.865Z,18.42
2022-12-03T06:17:50.078Z,17.17
2022-12-03T06:18:52.638Z,17.12
2022-12-03T06:19:55.188Z,17.87
2022-12-03T06:20:57.781Z,17.20
2022-12-03T06:22:00.425Z,17.83
2022-12-03T06:23:03.356Z,18.00
2022-12-03T06:24:06.250Z,18.20
2022-12-03T06:25:10.028Z,17.73
2022-12-03T06:26:13.863Z,21.40
2022-12-03T06:27:16.541Z,23.27
2022-12-03T06:28:19.576Z,22.35
2022-12-03T06:29:22.140Z,22.15
2022-12-03T06:30:25.192Z,31.85
2022-12-03T06:31:27.816Z,26.30
2022-12-03T06:32:31.106Z,29.12
2022-12-03T06:33:34.241Z,27.10
2022-12-03T06:34:37.482Z,24.87
2022-12-03T06:35:40.466Z,25.30
2022-12-03T06:36:43.173Z,24.80
2022-12-03T06:37:45.819Z,22.70
2022-12-03T06:38:48.647Z,22.30
2022-12-03T06:39:51.799Z,21.73
2022-12-03T06:40:54.334Z,22.13
2022-12-03T06:41:56.914Z,21.50
2022-12-03T06:42:59.442Z,20.62
2022-12-03T06:44:02.285Z,20.62
2022-12-03T06:45:05.291Z,21.12
2022-12-03T06:46:07.889Z,20.23
2022-12-03T06:47:10.564Z,20.98
2022-12-03T06:48:13.136Z,21.65
2022-12-03T06:49:16.777Z,23.33
2022-12-03T06:50:19.326Z,24.30
2022-12-03T06:51:21.847Z,26.37
2022-12-03T06:52:24.765Z,27.10
2022-12-03T06:53:27.444Z,28.58
2022-12-03T06:54:30.381Z,30.90
2022-12-03T06:55:32.935Z,31.15
2022-12-03T06:56:41.825Z,31.17
2022-12-03T06:57:48.309Z,30.33
2022-12-03T06:58:50.923Z,32.38
2022-12-03T06:59:54.075Z,34.42
2022-12-03T07:00:56.803Z,33.92
2022-12-03T07:01:59.398Z,32.28
2022-12-03T07:03:02.082Z,35.67
2022-12-03T07:04:04.902Z,35.00
2022-12-03T07:05:08.079Z,33.45
2022-12-03T07:06:10.736Z,34.85
2022-12-03T07:07:14.249Z,34.40
2022-12-03T07:08:17.518Z,34.83
2022-12-03T07:09:20.228Z,34.05
2022-12-03T07:10:23.160Z,36.28
2022-12-03T07:11:31.810Z,38.28
2022-12-03T07:12:34.395Z,35.28
2022-12-03T07:13:36.901Z,35.10
2022-12-03T07:14:39.452Z,36.00
2022-12-03T07:15:42.437Z,37.03
2022-12-03T07:16:45.232Z,39.75
2022-12-03T07:17:47.886Z,38.07
2022-12-03T07:18:51.084Z,42.23
2022-12-03T07:19:53.966Z,41.78
2022-12-03T07:20:56.883Z,36.47
2022-12-03T07:21:59.474Z,38.30
2022-12-03T07:23:02.149Z,33.08
2022-12-03T07:24:05.636Z,34.67
2022-12-03T07:25:08.865Z,32.67
2022-12-03T07:26:12.212Z,33.25
2022-12-03T07:27:14.874Z,24.58
2022-12-03T07:28:17.441Z,22.93
2022-12-03T07:29:20.625Z,24.17
2022-12-03T07:30:24.358Z,23.40
2022-12-03T07:31:27.348Z,25.67
2022-12-03T07:32:30.636Z,25.00
2022-12-03T07:33:33.654Z,25.02
2022-12-03T07:34:36.217Z,24.83
2022-12-03T07:35:39.904Z,27.17
2022-12-03T07:36:43.375Z,28.87
2022-12-03T07:37:45.916Z,29.35
2022-12-03T07:38:48.969Z,26.23
2022-12-03T07:39:54.666Z,22.20
2022-12-03T07:40:57.209Z,23.27
2022-12-03T07:42:00.016Z,23.90
2022-12-03T07:43:02.999Z,25.40
2022-12-03T07:44:10.814Z,24.87
2022-12-03T07:45:17.002Z,25.42
2022-12-03T07:46:19.660Z,25.00
2022-12-03T07:47:22.842Z,25.25
2022-12-03T07:48:25.615Z,27.48
2022-12-03T07:49:28.142Z,27.50
2022-12-03T07:50:31.181Z,25.80
2022-12-03T07:51:33.781Z,24.58
2022-12-03T07:52:36.754Z,22.48
2022-12-03T07:53:40.023Z,23.80
2022-12-03T07:54:42.633Z,21.90
2022-12-03T07:55:45.229Z,21.80
2022-12-03T07:56:49.099Z,26.48
2022-12-03T07:57:52.078Z,22.55
2022-12-03T07:58:54.726Z,25.88
2022-12-03T07:59:57.870Z,24.60
2022-12-03T08:01:00.507Z,27.73
2022-12-03T08:02:03.771Z,22.27
2022-12-03T08:03:06.819Z,24.02
2022-12-03T08:04:09.430Z,20.08
2022-12-03T08:05:13.228Z,20.65
2022-12-03T08:06:15.899Z,21.02
2022-12-03T08:07:19.033Z,19.73
2022-12-03T08:08:21.657Z,27.95
2022-12-03T08:09:24.287Z,34.25
2022-12-03T08:10:27.418Z,25.63
2022-12-03T08:11:29.956Z,30.13
2022-12-03T08:12:42.282Z,41.25
2022-12-03T08:13:44.976Z,25.42
2022-12-03T08:14:47.879Z,28.30
2022-12-03T08:15:50.484Z,30.77
2022-12-03T08:16:53.507Z,28.95
2022-12-03T08:18:01.446Z,27.15
2022-12-03T08:19:09.250Z,22.70
2022-12-03T08:20:15.952Z,23.55
2022-12-03T08:21:21.114Z,38.73
2022-12-03T08:22:23.819Z,27.85
2022-12-03T08:23:26.705Z,27.55
2022-12-03T08:24:30.515Z,24.77
2022-12-03T08:25:33.766Z,20.00
2022-12-03T08:26:36.491Z,22.67
2022-12-03T08:27:39.531Z,21.02
2022-12-03T08:28:42.979Z,19.40
2022-12-03T08:29:46.732Z,22.13
2022-12-03T08:31:12.670Z,23.27
2022-12-03T08:32:15.363Z,21.77
2022-12-03T08:33:28.235Z,22.50
2022-12-03T08:34:38.933Z,20.25
2022-12-03T08:35:43.955Z,19.15
2022-12-03T08:36:50.665Z,19.83
2022-12-03T08:38:05.745Z,25.23
2022-12-03T08:39:33.646Z,34.28
2022-12-03T08:40:40.904Z,29.17
2022-12-03T08:42:01.856Z,23.62
2022-12-03T08:43:17.268Z,22.62
2022-12-03T08:44:29.265Z,21.83
2022-12-03T08:45:39.752Z,24.97
2022-12-03T08:46:43.118Z,31.92
2022-12-03T08:47:46.372Z,24.05
2022-12-03T08:48:49.802Z,23.52
2022-12-03T08:49:59.977Z,24.12
2022-12-03T08:51:32.258Z,21.55
2022-12-03T08:52:35.262Z,21.92
2022-12-03T08:53:42.630Z,24.92
2022-12-03T08:54:58.585Z,22.17
2022-12-03T08:56:13.074Z,24.03
2022-12-03T08:57:35.001Z,21.97
2022-12-03T08:58:46.954Z,21.15
2022-12-03T08:59:54.562Z,21.40
2022-12-03T09:01:24.564Z,19.15
2022-12-03T09:02:33.475Z,19.40
2022-12-03T09:03:37.015Z,26.42
2022-12-03T09:04:46.947Z,21.15
2022-12-03T09:05:50.282Z,20.98
2022-12-03T09:06:54.046Z,25.98
2022-12-03T09:07:56.883Z,25.03
2022-12-03T09:09:05.132Z,24.10
2022-12-03T09:10:11.362Z,24.17
2022-12-03T09:11:14.742Z,24.42
2022-12-03T09:12:17.480Z,34.92
2022-12-03T09:13:20.421Z,28.00
2022-12-03T09:14:23.783Z,28.70
2022-12-03T09:15:26.769Z,20.95
2022-12-03T09:16:29.796Z,22.58
2022-12-03T09:17:33.168Z,25.37
2022-12-03T09:18:35.924Z,23.93
2022-12-03T09:19:46.311Z,21.97
2022-12-03T09:20:49.960Z,20.25
2022-12-03T09:21:53.813Z,19.75
2022-12-03T09:22:56.769Z,19.17
2022-12-03T09:23:59.376Z,22.92
2022-12-03T09:25:04.950Z,20.50
2022-12-03T09:26:07.939Z,21.45
2022-12-03T09:27:11.119Z,21.58
2022-12-03T09:28:13.842Z,20.80
2022-12-03T09:29:16.435Z,21.47
2022-12-03T09:30:19.462Z,19.70
2022-12-03T09:31:22.460Z,20.58
2022-12-03T09:32:25.371Z,21.48
2022-12-03T09:33:28.376Z,26.45
2022-12-03T09:34:31.025Z,30.95
2022-12-03T09:35:33.757Z,33.03
2022-12-03T09:36:37.038Z,25.30
2022-12-03T09:37:39.647Z,23.08
2022-12-03T09:38:46.224Z,21.75
2022-12-03T09:39:51.190Z,20.83
2022-12-03T09:40:54.216Z,21.10
2022-12-03T09:41:57.814Z,20.48
2022-12-03T09:43:01.023Z,21.73
2022-12-03T09:44:05.150Z,21.60
2022-12-03T09:45:12.342Z,22.23
2022-12-03T09:46:15.297Z,20.55
2022-12-03T09:47:18.848Z,23.00
2022-12-03T09:48:22.485Z,21.55
2022-12-03T09:49:25.141Z,23.50
2022-12-03T09:50:28.355Z,25.57
2022-12-03T09:51:35.344Z,32.00
2022-12-03T09:52:38.231Z,28.87
2022-12-03T09:53:41.814Z,27.50
2022-12-03T09:54:47.578Z,24.75
2022-12-03T09:55:50.403Z,25.85
2022-12-03T09:56:55.143Z,23.23
2022-12-03T09:57:58.920Z,21.08
2022-12-03T09:59:02.498Z,19.80
2022-12-03T10:00:20.218Z,29.75
2022-12-03T10:01:25.833Z,24.10
2022-12-03T10:02:31.463Z,24.23
2022-12-03T10:03:34.081Z,23.17
2022-12-03T10:04:36.732Z,24.37
2022-12-03T10:05:43.798Z,24.65
2022-12-03T10:06:51.371Z,21.10
2022-12-03T10:08:03.671Z,21.05
2022-12-03T10:09:07.140Z,22.15
2022-12-03T10:10:22.738Z,20.65
2022-12-03T10:11:25.933Z,20.05
2022-12-03T10:12:29.299Z,21.53
2022-12-03T10:13:34.598Z,22.20
2022-12-03T10:14:37.264Z,22.87
2022-12-03T10:15:39.996Z,26.37
2022-12-03T10:16:43.065Z,20.95
2022-12-03T10:17:47.965Z,20.30
2022-12-03T10:18:56.186Z,21.50
2022-12-03T10:19:58.837Z,19.17
2022-12-03T10:21:02.141Z,20.40
2022-12-03T10:22:04.815Z,20.88
2022-12-03T10:23:07.654Z,23.33
2022-12-03T10:24:22.580Z,25.20
2022-12-03T10:25:25.149Z,24.50
2022-12-03T10:26:40.773Z,23.40
2022-12-03T10:27:55.126Z,24.98
2022-12-03T10:28:58.477Z,21.15
2022-12-03T10:30:03.916Z,22.08
2022-12-03T10:31:09.568Z,20.65
2022-12-03T10:32:12.898Z,21.00
2022-12-03T10:33:19.033Z,23.00
2022-12-03T10:34:30.787Z,26.47
2022-12-03T10:35:44.266Z,21.33
2022-12-03T10:36:47.201Z,21.27
2022-12-03T10:38:00.532Z,23.65
2022-12-03T10:39:08.615Z,23.00
2022-12-03T10:40:12.412Z,18.50
2022-12-03T10:41:30.304Z,21.87
2022-12-03T10:42:34.461Z,19.92
2022-12-03T10:43:37.581Z,24.02
2022-12-03T10:44:40.228Z,21.95
2022-12-03T10:45:44.537Z,22.03
2022-12-03T10:47:07.704Z,20.10
2022-12-03T10:48:27.521Z,20.73
2022-12-03T10:49:30.720Z,19.27
2022-12-03T10:50:34.658Z,20.35
2022-12-03T10:51:39.245Z,20.20
2022-12-03T10:52:42.347Z,21.23
2022-12-03T10:53:44.925Z,19.35
2022-12-03T10:54:49.956Z,20.52
2022-12-03T10:55:58.831Z,23.98
2022-12-03T10:57:02.182Z,25.93
2022-12-03T10:58:05.310Z,22.07
2022-12-03T10:59:18.425Z,19.45
2022-12-03T11:00:21.532Z,20.33
2022-12-03T11:01:26.546Z,20.20
2022-12-03T11:02:29.505Z,19.52
2022-12-03T11:03:37.284Z,19.50
2022-12-03T11:04:41.022Z,21.45
2022-12-03T11:05:43.606Z,18.77
2022-12-03T11:06:48.450Z,19.75
2022-12-03T11:07:51.348Z,17.80
2022-12-03T11:08:59.447Z,17.17
2022-12-03T11:10:07.350Z,17.23
2022-12-03T11:11:19.766Z,18.12
2022-12-03T11:12:34.672Z,20.65
2022-12-03T11:13:37.786Z,20.92
2022-12-03T11:14:56.654Z,19.75
2022-12-03T11:16:05.711Z,19.45
2022-12-03T11:17:08.596Z,18.23
2022-12-03T11:18:11.252Z,18.15
2022-12-03T11:19:45.424Z,19.07
2022-12-03T11:20:47.978Z,19.87
2022-12-03T11:22:05.961Z,21.30
2022-12-03T11:23:10.575Z,19.40
2022-12-03T11:24:19.924Z,18.80
2022-12-03T11:25:25.734Z,19.73
2022-12-03T11:26:28.860Z,18.35
2022-12-03T11:27:31.515Z,18.95
2022-12-03T11:28:36.690Z,19.27
2022-12-03T11:29:44.906Z,19.67
2022-12-03T11:30:51.070Z,22.20
2022-12-03T11:31:54.247Z,21.57
2022-12-03T11:33:00.913Z,19.12
2022-12-03T11:34:18.570Z,17.05
2022-12-03T11:35:24.165Z,17.80
2022-12-03T11:36:42.290Z,18.00
2022-12-03T11:37:50.333Z,18.80
2022-12-03T11:38:55.819Z,18.98
2022-12-03T11:40:00.805Z,21.45
2022-12-03T11:41:15.133Z,37.45
2022-12-03T11:42:26.652Z,24.20
2022-12-03T11:43:57.760Z,24.50
2022-12-03T11:45:06.171Z,18.70
2022-12-03T11:46:10.325Z,18.33
2022-12-03T11:47:16.175Z,17.98
2022-12-03T11:48:20.156Z,17.35
2022-12-03T11:49:29.916Z,19.33
2022-12-03T11:50:40.553Z,17.45
2022-12-03T11:51:44.846Z,16.65
2022-12-03T11:53:02.094Z,20.27
2022-12-03T11:54:05.382Z,21.93
2022-12-03T11:55:25.705Z,24.23
2022-12-03T11:56:29.911Z,19.48
2022-12-03T11:57:38.490Z,22.90
2022-12-03T11:58:43.723Z,19.85
2022-12-03T12:00:01.280Z,17.80
2022-12-03T12:01:06.539Z,16.87
2022-12-03T12:02:24.843Z,17.42
2022-12-03T12:03:35.823Z,16.37
2022-12-03T12:04:38.493Z,17.95
2022-12-03T12:05:41.475Z,15.77
2022-12-03T12:06:47.485Z,16.57
2022-12-03T12:07:55.650Z,16.87
2022-12-03T12:08:59.605Z,16.70
2022-12-03T12:10:03.564Z,16.42
2022-12-03T12:11:29.537Z,17.00
2022-12-03T12:12:38.837Z,16.48
2022-12-03T12:13:41.599Z,15.68
2022-12-03T12:14:44.160Z,36.33
2022-12-03T12:15:47.601Z,44.97
2022-12-03T12:16:55.408Z,29.70
2022-12-03T12:18:36.345Z,37.27
2022-12-03T12:19:43.379Z,26.50
2022-12-03T12:20:46.229Z,19.83
2022-12-03T12:21:49.992Z,15.23
2022-12-03T12:22:54.886Z,14.63
2022-12-03T12:23:57.376Z,15.50
2022-12-03T12:25:40.340Z,16.33
2022-12-03T12:26:51.343Z,16.87
2022-12-03T12:27:55.181Z,18.33
2022-12-03T12:28:57.917Z,16.13
2022-12-03T12:30:10.312Z,18.97
2022-12-03T12:31:12.920Z,17.52
2022-12-03T12:32:17.718Z,19.58
2022-12-03T12:33:23.539Z,15.60
2022-12-03T12:34:26.363Z,16.70
2022-12-03T12:35:32.955Z,17.50
2022-12-03T12:36:35.613Z,18.70
2022-12-03T12:38:07.995Z,17.45
2022-12-03T12:39:14.713Z,18.33
2022-12-03T12:40:18.396Z,36.03
2022-12-03T12:41:21.187Z,21.57
2022-12-03T12:42:23.690Z,26.12
2022-12-03T12:43:29.676Z,20.30
2022-12-03T12:44:32.273Z,17.58
2022-12-03T12:45:37.077Z,16.02
2022-12-03T12:46:48.345Z,19.85
2022-12-03T12:48:10.084Z,23.83
2022-12-03T12:49:15.685Z,18.70
2022-12-03T12:50:19.157Z,23.17
2022-12-03T12:51:22.116Z,25.13
2022-12-03T12:52:25.441Z,31.90
2022-12-03T12:53:30.885Z,31.30
2022-12-03T12:54:33.460Z,35.42
2022-12-03T12:55:36.151Z,22.60
2022-12-03T12:56:42.198Z,25.12
2022-12-03T12:57:45.209Z,22.42
2022-12-03T12:58:48.042Z,17.33
2022-12-03T12:59:52.742Z,21.25
2022-12-03T13:01:06.174Z,18.17
2022-12-03T13:02:30.529Z,16.73
2022-12-03T13:03:37.006Z,19.83
2022-12-03T13:04:40.306Z,34.40
2022-12-03T13:05:45.977Z,19.85
2022-12-03T13:06:53.431Z,23.42
2022-12-03T13:07:56.248Z,22.87
2022-12-03T13:09:01.301Z,21.75
2022-12-03T13:10:26.747Z,18.90
2022-12-03T13:11:45.976Z,17.65
2022-12-03T13:12:49.026Z,17.55
2022-12-03T13:13:52.641Z,24.73
2022-12-03T13:14:59.546Z,29.67
2022-12-03T13:16:07.324Z,31.90
2022-12-03T13:17:22.604Z,42.30
2022-12-03T13:19:03.318Z,33.08
2022-12-03T13:20:18.936Z,48.50
2022-12-03T13:21:22.199Z,28.77
2022-12-03T13:22:25.672Z,38.38
2022-12-03T13:23:30.370Z,25.05
2022-12-03T13:24:34.602Z,33.80
2022-12-03T13:27:21.651Z,23.67
2022-12-03T13:28:24.740Z,26.83
2022-12-03T13:29:28.213Z,24.25
2022-12-03T13:30:30.910Z,26.65
2022-12-03T13:31:41.879Z,25.45
2022-12-03T13:32:46.257Z,23.65
2022-12-03T13:33:49.840Z,27.13
2022-12-03T13:34:52.487Z,37.83
2022-12-03T13:35:58.252Z,26.85
2022-12-03T13:37:02.124Z,33.37
2022-12-03T13:38:13.800Z,39.03
2022-12-03T13:39:22.774Z,24.55
2022-12-03T13:40:35.096Z,23.48
2022-12-03T13:41:56.642Z,26.33
2022-12-03T13:42:59.566Z,28.20
2022-12-03T13:44:06.543Z,35.67
2022-12-03T13:45:13.569Z,41.97
2022-12-03T13:46:16.494Z,43.97
2022-12-03T13:47:22.819Z,44.70
2022-12-03T13:48:34.577Z,42.93
2022-12-03T13:49:37.370Z,45.17
2022-12-03T13:50:44.564Z,66.60
2022-12-03T13:51:47.572Z,83.97
2022-12-03T13:52:51.714Z,65.75
2022-12-03T13:53:54.951Z,39.35
2022-12-03T13:54:57.578Z,37.78
2022-12-03T13:56:15.201Z,40.88
2022-12-03T13:57:17.826Z,30.83
2022-12-03T13:58:20.904Z,35.85
2022-12-03T13:59:26.343Z,30.40
2022-12-03T14:00:29.607Z,51.17
2022-12-03T14:01:32.865Z,46.37
2022-12-03T14:02:35.490Z,42.67
2022-12-03T14:03:38.577Z,50.25
2022-12-03T14:04:41.774Z,40.45
2022-12-03T14:05:44.314Z,41.03
2022-12-03T14:06:47.777Z,42.88